createdAt,value
2022-09-06T00:00:25.926Z,2.60
2022-09-06T00:03:28.263Z,2.85
2022-09-06T00:06:30.023Z,2.78
2022-09-06T00:09:31.790Z,2.90
2022-09-06T00:12:34.334Z,2.53
2022-09-06T00:15:37.113Z,2.85
2022-09-06T00:18:39.240Z,2.67
2022-09-06T00:21:41.493Z,2.67
2022-09-06T00:24:43.165Z,3.10
2022-09-06T00:27:44.826Z,2.67
2022-09-06T00:30:46.516Z,2.42
2022-09-06T00:33:48.955Z,2.42
2022-09-06T00:36:50.715Z,2.88
2022-09-06T00:39:52.379Z,2.53
2022-09-06T00:42:54.058Z,2.78
2022-09-06T00:45:57.928Z,2.78
2022-09-06T00:49:29.558Z,2.70
2022-09-06T00:52:32.777Z,2.58
2022-09-06T00:55:34.769Z,2.67
2022-09-06T00:58:37.010Z,2.75
2022-09-06T01:01:38.862Z,2.63
2022-09-06T01:04:43.541Z,2.50
2022-09-06T01:08:10.505Z,2.60
2022-09-06T01:11:21.009Z,2.58
2022-09-06T01:14:31.870Z,3.33
2022-09-06T01:17:52.579Z,3.50
2022-09-06T01:21:14.757Z,3.55
2022-09-06T01:25:00.729Z,3.30
2022-09-06T01:28:33.703Z,3.80
2022-09-06T01:31:45.280Z,3.25
2022-09-06T01:35:02.844Z,3.35
2022-09-06T01:38:05.804Z,3.75
2022-09-06T01:41:07.736Z,3.50
2022-09-06T01:44:09.526Z,3.80
2022-09-06T01:47:25.811Z,3.60
2022-09-06T01:53:51.598Z,3.67
2022-09-06T01:57:12.179Z,3.45
2022-09-06T02:00:19.754Z,3.58
2022-09-06T02:04:00.068Z,3.25
2022-09-06T02:07:07.443Z,3.05
2022-09-06T02:10:24.287Z,3.38
2022-09-06T02:13:31.411Z,3.25
2022-09-06T02:16:37.771Z,3.22
2022-09-06T02:19:52.218Z,3.60
2022-09-06T02:22:57.229Z,3.00
2022-09-06T02:26:08.220Z,3.00
2022-09-06T02:29:10.225Z,3.03
2022-09-06T02:32:20.417Z,3.25
2022-09-06T02:35:22.454Z,3.08
2022-09-06T02:38:27.038Z,2.72
2022-09-06T02:41:31.126Z,3.10
2022-09-06T02:44:32.947Z,3.33
2022-09-06T02:47:34.617Z,2.90
2022-09-06T02:50:37.195Z,3.30
2022-09-06T02:53:39.413Z,3.30
2022-09-06T02:56:41.279Z,3.05
2022-09-06T02:59:42.986Z,2.90
2022-09-06T03:02:44.710Z,3.10
2022-09-06T03:05:51.628Z,2.72
2022-09-06T03:08:53.443Z,3.00
2022-09-06T03:11:55.256Z,2.83
2022-09-06T03:14:57.185Z,3.08
2022-09-06T03:17:59.592Z,2.85
2022-09-06T03:21:01.478Z,3.08
2022-09-06T03:24:03.390Z,3.10
2022-09-06T03:27:05.119Z,3.05
2022-09-06T03:30:07.498Z,3.05
2022-09-06T03:33:09.173Z,3.33
2022-09-06T03:36:10.912Z,3.20
2022-09-06T03:39:12.635Z,3.30
2022-09-06T03:42:14.476Z,3.00
2022-09-06T03:45:16.264Z,2.90
2022-09-06T03:48:19.182Z,2.80
2022-09-06T03:51:21.138Z,2.80
2022-09-06T03:54:24.569Z,2.65
2022-09-06T03:57:26.470Z,3.10
2022-09-06T04:00:28.193Z,2.67
2022-09-06T04:03:30.035Z,3.00
2022-09-06T04:06:31.829Z,3.13
2022-09-06T04:09:34.899Z,2.75
2022-09-06T04:12:36.573Z,2.80
2022-09-06T04:15:38.213Z,2.60
2022-09-06T04:18:40.115Z,2.67
2022-09-06T04:21:42.211Z,2.90
2022-09-06T04:24:43.921Z,2.95
2022-09-06T04:27:45.531Z,2.78
2022-09-06T04:30:55.558Z,2.80
2022-09-06T04:33:57.329Z,2.80
2022-09-06T04:36:59.018Z,2.65
2022-09-06T04:40:00.784Z,2.70
2022-09-06T04:43:02.513Z,2.50
2022-09-06T04:46:16.932Z,2.60
2022-09-06T04:49:18.708Z,2.88
2022-09-06T04:52:20.532Z,2.95
2022-09-06T04:55:22.473Z,3.05
2022-09-06T04:58:24.519Z,3.00
2022-09-06T05:01:26.424Z,2.80
2022-09-06T05:04:28.280Z,2.97
2022-09-06T05:07:29.967Z,2.70
2022-09-06T05:10:31.754Z,3.10
2022-09-06T05:13:34.071Z,2.95
2022-09-06T05:16:35.803Z,2.92
2022-09-06T05:19:37.581Z,3.17
2022-09-06T05:22:40.557Z,3.30
2022-09-06T05:25:42.152Z,3.53
2022-09-06T05:28:43.876Z,3.85
2022-09-06T05:31:45.508Z,2.90
2022-09-06T05:34:47.185Z,3.10
2022-09-06T05:37:48.897Z,3.20
2022-09-06T05:40:50.784Z,3.80
2022-09-06T05:43:52.888Z,3.50
2022-09-06T05:46:54.626Z,3.65
2022-09-06T05:49:56.337Z,3.15
2022-09-06T05:52:58.071Z,3.28
2022-09-06T05:55:59.891Z,3.22
2022-09-06T05:59:01.668Z,3.25
2022-09-06T06:02:07.218Z,3.42
2022-09-06T06:05:09.468Z,3.90
2022-09-06T06:08:11.084Z,3.70
2022-09-06T06:11:13.627Z,3.28
2022-09-06T06:14:15.447Z,3.92
2022-09-06T06:17:17.102Z,3.90
2022-09-06T06:20:18.933Z,3.72
2022-09-06T06:23:20.657Z,4.30
2022-09-06T06:26:24.746Z,3.95
2022-09-06T06:29:26.405Z,3.85
2022-09-06T06:32:28.225Z,3.97
2022-09-06T06:35:29.864Z,3.80
2022-09-06T06:38:37.753Z,3.72
2022-09-06T06:41:39.404Z,3.70
2022-09-06T06:45:00.404Z,3.72
2022-09-06T06:48:02.243Z,4.10
2022-09-06T06:51:04.218Z,3.67
2022-09-06T06:54:06.232Z,3.70
2022-09-06T06:57:09.524Z,3.88
2022-09-06T07:00:11.713Z,4.00
2022-09-06T07:03:13.920Z,4.10
2022-09-06T07:06:16.164Z,3.95
2022-09-06T07:09:20.024Z,3.80
2022-09-06T07:12:21.619Z,4.07
2022-09-06T07:15:23.277Z,4.10
2022-09-06T07:18:24.960Z,4.05
2022-09-06T07:21:42.531Z,4.10
2022-09-06T07:24:44.290Z,3.75
2022-09-06T07:30:55.216Z,3.50
2022-09-06T07:33:56.893Z,3.42
2022-09-06T07:36:58.713Z,3.10
2022-09-06T07:40:00.765Z,3.45
2022-09-06T07:43:02.486Z,3.20
2022-09-06T07:46:07.134Z,3.45
2022-09-06T07:49:09.232Z,3.17
2022-09-06T07:55:32.707Z,3.50
2022-09-06T07:58:35.198Z,3.25
2022-09-06T08:01:39.118Z,3.15
2022-09-06T08:04:42.037Z,3.42
2022-09-06T08:07:43.739Z,3.45
2022-09-06T08:10:50.903Z,3.08
2022-09-06T08:13:56.745Z,3.47
2022-09-06T08:20:00.224Z,3.30
2022-09-06T08:23:02.007Z,3.60
2022-09-06T08:26:03.929Z,3.30
2022-09-06T08:29:07.745Z,3.30
2022-09-06T08:32:09.566Z,3.50
2022-09-06T08:35:11.213Z,2.85
2022-09-06T08:38:12.887Z,3.03
2022-09-06T08:41:27.409Z,3.00
2022-09-06T08:44:57.616Z,3.10
2022-09-06T08:47:59.930Z,3.03
2022-09-06T08:51:28.780Z,3.20
2022-09-06T08:54:40.215Z,3.47
2022-09-06T08:57:44.939Z,4.50
2022-09-06T09:01:00.503Z,4.15
2022-09-06T09:04:05.931Z,3.97
2022-09-06T09:07:38.761Z,4.00
2022-09-06T09:10:48.156Z,3.97
2022-09-06T09:13:59.350Z,4.45
2022-09-06T09:17:10.419Z,3.65
2022-09-06T09:20:12.249Z,4.07
2022-09-06T09:23:13.933Z,4.40
2022-09-06T09:26:15.837Z,4.80
2022-09-06T09:29:18.289Z,3.92
2022-09-06T09:32:43.782Z,3.97
2022-09-06T09:35:45.572Z,3.83
2022-09-06T09:38:52.964Z,3.80
2022-09-06T09:41:54.724Z,3.60
2022-09-06T09:44:57.425Z,3.90
2022-09-06T09:48:17.484Z,3.58
2022-09-06T09:51:27.421Z,3.83
2022-09-06T09:54:37.480Z,4.38
2022-09-06T09:57:48.152Z,3.72
2022-09-06T10:01:10.183Z,3.85
2022-09-06T10:07:46.168Z,3.80
2022-09-06T10:10:48.252Z,3.53
2022-09-06T10:14:10.704Z,3.72
2022-09-06T10:17:28.768Z,3.22
2022-09-06T10:20:46.169Z,3.15
2022-09-06T10:24:27.450Z,2.97
2022-09-06T10:27:31.061Z,3.28
2022-09-06T10:30:38.908Z,3.13
2022-09-06T10:33:55.872Z,3.05
2022-09-06T10:37:09.631Z,3.08
2022-09-06T10:40:17.091Z,2.95
2022-09-06T10:43:20.609Z,3.05
2022-09-06T10:46:26.651Z,2.90
2022-09-06T10:49:28.694Z,2.15
2022-09-06T10:52:37.837Z,2.30
2022-09-06T10:55:43.576Z,2.53
2022-09-06T11:06:29.761Z,1.90
2022-09-06T11:09:41.507Z,1.70
2022-09-06T11:13:18.330Z,1.80
2022-09-06T11:16:32.014Z,1.98
2022-09-06T11:19:53.943Z,2.10
2022-09-06T11:23:32.610Z,2.10
2022-09-06T11:26:42.394Z,2.10
2022-09-06T11:29:47.245Z,2.20
2022-09-06T11:32:50.777Z,2.42
2022-09-06T11:35:54.294Z,2.22
2022-09-06T11:39:02.022Z,2.47
2022-09-06T11:42:07.961Z,2.28
2022-09-06T11:45:18.060Z,2.25
2022-09-06T11:48:26.650Z,2.20
2022-09-06T11:51:38.030Z,1.77
2022-09-06T11:54:47.178Z,2.05
2022-09-06T11:57:54.484Z,2.17
2022-09-06T12:01:16.591Z,2.03
2022-09-06T12:04:18.294Z,1.70
2022-09-06T12:07:20.025Z,1.55
2022-09-06T12:10:30.978Z,1.60
2022-09-06T12:13:47.103Z,1.40
2022-09-06T12:16:57.712Z,1.60
2022-09-06T12:20:08.336Z,1.67
2022-09-06T12:23:50.195Z,1.70
2022-09-06T12:27:07.977Z,1.70
2022-09-06T12:30:12.822Z,1.50
2022-09-06T12:33:23.945Z,1.63
2022-09-06T12:36:30.467Z,1.90
2022-09-06T12:39:32.763Z,1.90
2022-09-06T12:42:37.858Z,2.00
2022-09-06T12:45:48.249Z,1.98
2022-09-06T12:49:08.702Z,1.95
2022-09-06T12:52:16.638Z,1.90
2022-09-06T12:55:33.878Z,1.83
2022-09-06T12:58:36.676Z,1.73
2022-09-06T13:01:39.168Z,1.80
2022-09-06T13:04:55.668Z,2.20
2022-09-06T13:08:03.210Z,1.90
2022-09-06T13:11:11.210Z,2.20
2022-09-06T13:14:19.441Z,2.20
2022-09-06T13:17:29.512Z,2.25
2022-09-06T13:20:31.605Z,1.90
2022-09-06T13:23:45.793Z,2.10
2022-09-06T13:26:47.517Z,1.83
2022-09-06T13:30:00.929Z,2.15
2022-09-06T13:33:06.137Z,2.13
2022-09-06T13:36:13.826Z,2.00
2022-09-06T13:39:37.652Z,2.20
2022-09-06T13:42:39.380Z,2.20
2022-09-06T13:45:41.231Z,2.25
2022-09-06T13:48:44.834Z,2.00
2022-09-06T13:51:46.769Z,2.60
2022-09-06T13:54:48.868Z,2.50
2022-09-06T13:57:50.993Z,2.50
2022-09-06T14:00:53.802Z,2.58
2022-09-06T14:03:55.542Z,2.33
2022-09-06T14:06:57.576Z,2.72
2022-09-06T14:10:01.311Z,2.60
2022-09-06T14:13:03.015Z,2.65
2022-09-06T14:16:05.969Z,2.45
2022-09-06T14:19:07.705Z,2.42
2022-09-06T14:22:09.446Z,2.25
2022-09-06T14:25:11.089Z,2.45
2022-09-06T14:28:12.962Z,2.58
2022-09-06T14:31:17.524Z,2.28
2022-09-06T14:34:19.333Z,2.30
2022-09-06T14:37:22.144Z,2.30
2022-09-06T14:40:23.912Z,2.40
2022-09-06T14:43:25.642Z,2.22
2022-09-06T14:46:28.313Z,2.00
2022-09-06T14:49:30.127Z,2.25
2022-09-06T14:52:31.859Z,2.05
2022-09-06T14:55:34.344Z,2.10
2022-09-06T14:58:37.566Z,2.03
2022-09-06T15:01:39.805Z,2.17
2022-09-06T15:04:42.055Z,2.15
2022-09-06T15:07:43.762Z,2.15
2022-09-06T15:10:54.296Z,2.03
2022-09-06T15:13:57.077Z,2.20
2022-09-06T15:17:00.069Z,2.28
2022-09-06T15:20:02.158Z,1.92
2022-09-06T15:26:27.589Z,1.95
2022-09-06T15:29:29.337Z,2.15
2022-09-06T15:32:31.183Z,2.20
2022-09-06T15:35:33.591Z,2.17
2022-09-06T15:38:37.175Z,2.10
2022-09-06T15:41:40.457Z,2.10
2022-09-06T15:44:42.099Z,2.35
2022-09-06T15:47:43.799Z,2.50
2022-09-06T15:50:51.656Z,2.30
2022-09-06T15:53:53.574Z,2.40
2022-09-06T15:56:58.131Z,2.50
2022-09-06T15:59:59.811Z,2.03
2022-09-06T16:03:01.498Z,2.28
2022-09-06T16:06:26.113Z,1.80
2022-09-06T16:09:29.309Z,2.05
2022-09-06T16:12:30.955Z,2.10
2022-09-06T16:15:32.718Z,2.20
2022-09-06T16:18:36.106Z,2.30
2022-09-06T16:21:39.903Z,2.05
2022-09-06T16:24:41.574Z,2.03
2022-09-06T16:27:43.236Z,1.85
2022-09-06T16:30:45.294Z,1.85
2022-09-06T16:33:49.013Z,2.08
2022-09-06T16:36:50.835Z,2.25
2022-09-06T16:39:52.587Z,2.10
2022-09-06T16:42:54.592Z,2.00
2022-09-06T16:46:01.279Z,1.95
2022-09-06T16:49:04.601Z,1.90
2022-09-06T16:52:06.331Z,2.00
2022-09-06T16:55:08.167Z,1.77
2022-09-06T16:58:10.172Z,1.85
2022-09-06T17:01:12.046Z,1.90
2022-09-06T17:04:14.604Z,1.85
2022-09-06T17:07:16.948Z,1.80
2022-09-06T17:10:18.994Z,1.77
2022-09-06T17:13:20.699Z,1.80
2022-09-06T17:16:41.682Z,2.13
2022-09-06T17:19:43.595Z,1.90
2022-09-06T17:22:50.342Z,1.92
2022-09-06T17:25:52.573Z,1.85
2022-09-06T17:28:54.847Z,1.90
2022-09-06T17:31:56.660Z,1.88
2022-09-06T17:34:58.329Z,2.08
2022-09-06T17:38:00.026Z,2.10
2022-09-06T17:41:02.281Z,1.98
2022-09-06T17:44:05.920Z,2.05
2022-09-06T17:47:12.804Z,2.22
2022-09-06T17:50:15.385Z,2.60
2022-09-06T17:53:17.150Z,2.38
2022-09-06T17:56:19.752Z,1.98
2022-09-06T17:59:21.382Z,2.05
2022-09-06T18:02:23.088Z,1.92
2022-09-06T18:05:24.927Z,1.92
2022-09-06T18:08:27.030Z,2.10
2022-09-06T18:11:31.903Z,2.00
2022-09-06T18:14:33.723Z,2.00
2022-09-06T18:17:35.430Z,1.63
2022-09-06T18:20:37.999Z,1.60
2022-09-06T18:23:39.753Z,1.70
2022-09-06T18:26:42.555Z,1.50
2022-09-06T18:29:44.242Z,1.88
2022-09-06T18:32:45.979Z,2.10
2022-09-06T18:35:49.739Z,1.83
2022-09-06T18:38:51.806Z,1.67
2022-09-06T18:42:04.037Z,1.77
2022-09-06T18:45:06.105Z,1.70
2022-09-06T18:48:07.834Z,1.50
2022-09-06T18:51:12.020Z,1.50
2022-09-06T18:54:14.645Z,1.70
2022-09-06T18:57:17.284Z,1.73
2022-09-06T19:00:19.208Z,1.55
2022-09-06T19:03:21.035Z,1.73
2022-09-06T19:06:23.291Z,1.60
2022-09-06T19:09:24.982Z,3.72
2022-09-06T19:12:26.709Z,1.90
2022-09-06T19:15:28.611Z,2.00
2022-09-06T19:18:30.415Z,1.75
2022-09-06T19:21:34.808Z,1.70
2022-09-06T19:24:40.287Z,2.15
2022-09-06T19:27:45.563Z,1.60
2022-09-06T19:30:49.998Z,1.75
2022-09-06T19:33:51.939Z,1.88
2022-09-06T19:36:55.344Z,1.75
2022-09-06T19:39:57.454Z,1.75
2022-09-06T19:42:59.309Z,1.73
2022-09-06T19:46:03.847Z,1.75
2022-09-06T19:49:08.271Z,1.90
2022-09-06T19:52:10.666Z,1.80
2022-09-06T19:55:12.406Z,1.70
2022-09-06T19:58:14.094Z,1.83
2022-09-06T20:01:18.139Z,2.00
2022-09-06T20:04:20.852Z,1.70
2022-09-06T20:07:22.663Z,1.83
2022-09-06T20:10:25.700Z,1.70
2022-09-06T20:13:28.908Z,1.90
2022-09-06T20:16:30.969Z,1.80
2022-09-06T20:19:32.763Z,1.85
2022-09-06T20:22:34.483Z,1.83
2022-09-06T20:25:37.897Z,1.90
2022-09-06T20:28:39.636Z,2.17
2022-09-06T20:31:41.500Z,1.92
2022-09-06T20:34:43.310Z,1.90
2022-09-06T20:37:45.020Z,1.92
2022-09-06T20:40:46.954Z,1.70
2022-09-06T20:43:53.835Z,2.08
2022-09-06T20:46:55.681Z,1.77
2022-09-06T20:49:57.507Z,1.80
2022-09-06T20:52:59.248Z,1.70
2022-09-06T20:56:03.807Z,1.85
2022-09-06T20:59:08.671Z,1.83
2022-09-06T21:02:10.425Z,1.92
2022-09-06T21:05:12.330Z,1.85
2022-09-06T21:08:14.513Z,2.10
2022-09-06T21:11:16.687Z,2.10
2022-09-06T21:14:18.341Z,2.13
2022-09-06T21:17:20.071Z,1.88
2022-09-06T21:20:22.258Z,2.10
2022-09-06T21:23:26.082Z,1.92
2022-09-06T21:26:28.285Z,1.85
2022-09-06T21:29:29.990Z,2.15
2022-09-06T21:32:31.656Z,1.85
2022-09-06T21:35:34.723Z,2.30
2022-09-06T21:38:44.077Z,2.25
2022-09-06T21:41:46.515Z,2.13
2022-09-06T21:44:48.202Z,2.38
2022-09-06T21:47:49.953Z,2.22
2022-09-06T21:50:52.240Z,2.38
2022-09-06T21:53:54.555Z,2.35
2022-09-06T21:56:56.252Z,2.20
2022-09-06T21:59:57.972Z,2.05
2022-09-06T22:02:59.716Z,2.33
2022-09-06T22:06:16.627Z,2.30
2022-09-06T22:09:18.353Z,2.55
2022-09-06T22:12:20.057Z,2.50
2022-09-06T22:15:22.240Z,2.00
2022-09-06T22:18:23.839Z,2.05
2022-09-06T22:21:25.691Z,2.25
2022-09-06T22:24:27.481Z,2.15
2022-09-06T22:27:29.450Z,2.28
2022-09-06T22:30:31.110Z,2.40
2022-09-06T22:33:33.287Z,2.30
2022-09-06T22:36:36.092Z,2.33
2022-09-06T22:39:37.788Z,2.03
2022-09-06T22:42:39.481Z,2.30
2022-09-06T22:45:49.807Z,2.40
2022-09-06T22:48:53.571Z,2.40
2022-09-06T22:51:55.272Z,2.20
2022-09-06T22:54:57.005Z,2.47
2022-09-06T22:57:58.699Z,2.28
2022-09-06T23:01:08.920Z,2.20
2022-09-06T23:04:10.764Z,2.10
2022-09-06T23:07:12.532Z,2.45
2022-09-06T23:10:14.285Z,2.13
2022-09-06T23:13:16.110Z,1.90
2022-09-06T23:16:19.359Z,2.58
2022-09-06T23:19:21.132Z,2.17
2022-09-06T23:22:22.929Z,2.10
2022-09-06T23:25:24.645Z,1.98
2022-09-06T23:28:28.157Z,1.95
2022-09-06T23:31:34.013Z,1.85
2022-09-06T23:37:37.613Z,1.90
2022-09-06T23:40:39.365Z,1.98
2022-09-06T23:43:42.565Z,2.30
2022-09-06T23:46:44.351Z,2.10
2022-09-06T23:49:46.745Z,1.83
2022-09-06T23:52:48.456Z,1.70
2022-09-06T23:55:50.244Z,2.00
2022-09-06T23:58:51.937Z,2.28
